Time;durP1;ratioP1;P1;durP2;ratioP2;P2;SDS_P1;SDS_P2;PMS_P1;PMS_P2;Temp;Humidity;BMP_temperature;BMP_pressure;BME280_temperature;BME280_humidity;BME280_pressure;Samples;Min_cycle;Max_cycle;Signal;HPM_P1;HPM_P2
2021/07/13 00:00:24;;;;;;;2.23;1.50;;;23.90;99.90;;;;;;4975699;28;20568;-88
2021/07/13 00:02:50;;;;;;;3.30;1.80;;;23.90;99.90;;;;;;4958187;28;20686;-89
2021/07/13 00:05:17;;;;;;;1.90;1.40;;;23.90;99.90;;;;;;4962953;28;20579;-89
2021/07/13 00:07:46;;;;;;;3.10;1.83;;;23.90;99.90;;;;;;4975648;28;20570;-89
2021/07/13 00:10:14;;;;;;;2.40;1.63;;;23.90;99.90;;;;;;4973182;28;20645;-89
2021/07/13 00:12:41;;;;;;;2.57;1.77;;;23.70;99.90;;;;;;4975583;28;20621;-90
2021/07/13 00:15:30;;;;;;;2.37;1.90;;;23.60;99.90;;;;;;4975786;28;20625;-90
2021/07/13 00:17:57;;;;;;;3.67;2.17;;;23.60;99.90;;;;;;4975644;28;20583;-90
2021/07/13 00:20:23;;;;;;;3.53;2.47;;;23.60;99.90;;;;;;4978038;28;20563;-90
2021/07/13 00:22:49;;;;;;;3.93;1.90;;;23.50;99.90;;;;;;4979091;28;20627;-91
2021/07/13 00:25:16;;;;;;;2.43;1.73;;;23.50;99.90;;;;;;4979117;28;20637;-90
2021/07/13 00:27:43;;;;;;;3.10;2.10;;;23.40;99.90;;;;;;4962416;28;20975;-90
2021/07/13 00:30:13;;;;;;;4.37;2.30;;;23.40;99.90;;;;;;4969512;28;20571;-90
2021/07/13 00:32:39;;;;;;;3.23;2.00;;;23.30;99.90;;;;;;4984999;28;20591;-89
2021/07/13 00:35:09;;;;;;;2.93;1.90;;;23.20;99.90;;;;;;4983203;28;20567;-89
2021/07/13 00:37:35;;;;;;;2.40;2.20;;;23.20;99.90;;;;;;4977896;28;20575;-88
2021/07/13 00:40:04;;;;;;;3.37;3.10;;;23.00;99.90;;;;;;4976988;28;20575;-89
2021/07/13 00:42:29;;;;;;;4.40;3.30;;;23.00;99.90;;;;;;4964768;28;20639;-89
2021/07/13 00:44:55;;;;;;;7.30;4.00;;;22.80;99.90;;;;;;4980202;28;20579;-90
2021/07/13 00:47:26;;;;;;;3.80;3.50;;;22.70;99.90;;;;;;4965572;28;20611;-89
2021/07/13 00:49:52;;;;;;;6.27;3.83;;;22.60;99.90;;;;;;4966726;28;20614;-89
2021/07/13 00:52:19;;;;;;;3.40;3.10;;;22.40;99.90;;;;;;4983577;28;20635;-88
2021/07/13 00:54:48;;;;;;;4.00;3.17;;;22.30;99.90;;;;;;4986202;28;20192;-88
2021/07/13 00:57:15;;;;;;;3.80;2.93;;;22.20;99.90;;;;;;4987040;28;20575;-88
2021/07/13 00:59:44;;;;;;;6.33;3.10;;;22.10;99.90;;;;;;4970667;28;20571;-88
2021/07/13 01:02:12;;;;;;;3.60;3.30;;;22.10;99.90;;;;;;4989317;28;20665;-89
2021/07/13 01:04:53;;;;;;;3.43;3.13;;;22.00;99.90;;;;;;4991615;28;20983;-88
2021/07/13 01:07:42;;;;;;;3.53;3.23;;;21.90;99.90;;;;;;4974393;28;20651;-88
2021/07/13 01:10:39;;;;;;;3.00;2.70;;;21.80;99.90;;;;;;4992441;28;20631;-88
2021/07/13 01:13:32;;;;;;;3.80;3.07;;;21.80;99.90;;;;;;4993910;28;20548;-88
2021/07/13 01:16:26;;;;;;;4.00;3.37;;;21.70;99.90;;;;;;4991567;28;21134;-89
2021/07/13 01:18:59;;;;;;;3.97;3.53;;;21.70;99.90;;;;;;4987886;28;20618;-89
2021/07/13 01:21:42;;;;;;;3.90;3.57;;;21.70;99.90;;;;;;4967768;28;20643;-88
2021/07/13 01:24:08;;;;;;;4.90;4.03;;;21.60;99.90;;;;;;4979564;28;20651;-89
2021/07/13 01:26:53;;;;;;;3.30;3.00;;;21.50;99.90;;;;;;4998420;28;20580;-89
2021/07/13 01:29:20;;;;;;;3.77;3.00;;;21.50;99.90;;;;;;4996906;28;20602;-88
2021/07/13 01:31:48;;;;;;;3.33;3.03;;;21.50;99.90;;;;;;4992653;28;20618;-88
2021/07/13 01:34:21;;;;;;;3.73;2.43;;;21.40;99.90;;;;;;4995233;28;20615;-88
2021/07/13 01:36:52;;;;;;;4.60;2.90;;;21.40;99.90;;;;;;4982750;28;20571;-88
2021/07/13 01:39:19;;;;;;;3.43;3.13;;;21.40;99.90;;;;;;4984035;28;20579;-87
2021/07/13 01:41:50;;;;;;;2.83;2.50;;;21.30;99.90;;;;;;4966376;28;20690;-87
2021/07/13 01:44:19;;;;;;;3.70;3.23;;;21.30;99.90;;;;;;4966152;28;21151;-88
2021/07/13 01:46:47;;;;;;;4.33;3.23;;;21.30;99.90;;;;;;4950690;28;20595;-88
2021/07/13 01:49:19;;;;;;;3.73;3.37;;;21.20;99.90;;;;;;4966020;28;20571;-87
2021/07/13 01:51:47;;;;;;;3.43;2.80;;;21.20;99.90;;;;;;4966102;28;20607;-88
2021/07/13 01:54:15;;;;;;;3.50;3.20;;;21.20;99.90;;;;;;4964387;28;20567;-89
2021/07/13 01:56:43;;;;;;;4.40;4.00;;;21.20;99.90;;;;;;4983864;28;20941;-88
2021/07/13 01:59:17;;;;;;;3.80;3.40;;;21.10;99.90;;;;;;4967622;28;20567;-88
2021/07/13 02:01:46;;;;;;;3.70;3.40;;;21.10;99.90;;;;;;4971333;28;20641;-89
2021/07/13 02:04:13;;;;;;;4.33;3.73;;;21.10;99.90;;;;;;4963140;28;20574;-88
2021/07/13 02:06:42;;;;;;;4.47;4.07;;;21.00;99.90;;;;;;4979917;28;20626;-88
2021/07/13 02:09:11;;;;;;;3.90;3.60;;;21.00;99.90;;;;;;4963617;28;20579;-88
2021/07/13 02:11:42;;;;;;;3.93;3.50;;;21.00;99.90;;;;;;4947674;28;20615;-88
2021/07/13 02:14:09;;;;;;;3.70;3.17;;;21.00;99.90;;;;;;4965042;28;21123;-89
2021/07/13 02:16:35;;;;;;;3.50;2.70;;;21.00;99.90;;;;;;4951721;28;20583;-89
2021/07/13 02:19:04;;;;;;;3.73;3.43;;;21.00;99.90;;;;;;4989611;28;20577;-89
2021/07/13 02:21:32;;;;;;;3.60;3.30;;;21.00;99.90;;;;;;4959746;28;20655;-88
2021/07/13 02:23:59;;;;;;;4.07;3.77;;;21.00;99.90;;;;;;4971763;28;20610;-88
2021/07/13 02:26:37;;;;;;;5.00;3.90;;;21.00;99.90;;;;;;4979378;28;20969;-88
2021/07/13 02:29:11;;;;;;;7.00;3.67;;;21.00;99.90;;;;;;4964601;28;20966;-88
2021/07/13 02:31:50;;;;;;;4.37;3.97;;;20.90;99.90;;;;;;4982244;28;20623;-88
2021/07/13 02:34:18;;;;;;;3.90;3.60;;;20.90;99.90;;;;;;4959327;28;20669;-88
2021/07/13 02:36:50;;;;;;;4.53;3.90;;;20.90;99.90;;;;;;4976801;28;20587;-88
2021/07/13 02:39:19;;;;;;;4.97;4.57;;;20.90;99.90;;;;;;4959072;28;21301;-88
2021/07/13 02:41:47;;;;;;;4.27;3.87;;;20.90;99.90;;;;;;4976412;28;20631;-88
2021/07/13 02:44:13;;;;;;;3.80;3.40;;;20.90;99.90;;;;;;4980271;28;21071;-88
2021/07/13 02:46:44;;;;;;;5.23;4.30;;;20.80;99.90;;;;;;4978912;28;20591;-87
2021/07/13 02:49:20;;;;;;;4.97;4.57;;;20.80;99.90;;;;;;4980712;28;20567;-87
2021/07/13 02:51:50;;;;;;;4.80;4.40;;;20.70;99.90;;;;;;4984426;28;20650;-88
2021/07/13 02:54:19;;;;;;;5.17;4.63;;;20.60;99.90;;;;;;4976407;28;20581;-87
2021/07/13 02:56:47;;;;;;;4.63;3.77;;;20.50;99.90;;;;;;4976319;28;20563;-88
2021/07/13 02:59:14;;;;;;;4.13;3.80;;;20.50;99.90;;;;;;4976022;28;20675;-88
2021/07/13 03:01:40;;;;;;;4.60;4.20;;;20.40;99.90;;;;;;4975920;28;20681;-89
2021/07/13 03:04:06;;;;;;;4.97;4.40;;;20.40;99.90;;;;;;4980251;28;20566;-88
2021/07/13 03:06:34;;;;;;;3.93;3.53;;;20.40;99.90;;;;;;4966055;28;20575;-88
2021/07/13 03:09:04;;;;;;;4.00;3.70;;;20.40;99.90;;;;;;4993933;28;20543;-88
2021/07/13 03:11:33;;;;;;;4.73;4.23;;;20.40;99.90;;;;;;4964604;28;20610;-88
2021/07/13 03:14:03;;;;;;;4.60;4.20;;;20.30;99.90;;;;;;4985416;28;20613;-86
2021/07/13 03:16:34;;;;;;;4.20;3.80;;;20.30;99.90;;;;;;4975420;28;20646;-85
2021/07/13 03:19:00;;;;;;;5.20;4.70;;;20.30;99.90;;;;;;4958277;28;20677;-86
2021/07/13 03:21:28;;;;;;;4.47;4.07;;;20.30;99.90;;;;;;4958100;28;20994;-86
2021/07/13 03:24:00;;;;;;;3.57;3.20;;;20.30;99.90;;;;;;4958363;28;20571;-87
2021/07/13 03:26:33;;;;;;;3.97;3.60;;;20.30;99.90;;;;;;4958425;28;20582;-87
2021/07/13 03:28:59;;;;;;;4.00;3.70;;;20.20;99.90;;;;;;4974995;28;20564;-85
2021/07/13 03:31:26;;;;;;;3.90;3.60;;;20.30;99.90;;;;;;4949632;28;20599;-85
2021/07/13 03:33:57;;;;;;;2.97;2.77;;;20.20;99.90;;;;;;4975340;28;20618;-85
2021/07/13 03:36:24;;;;;;;3.70;3.27;;;20.30;99.90;;;;;;4957920;28;20621;-86
2021/07/13 03:38:50;;;;;;;8.43;3.50;;;20.20;99.90;;;;;;4958023;28;20929;-86
2021/07/13 03:41:17;;;;;;;3.37;3.07;;;20.30;99.90;;;;;;4975075;28;20627;-85
2021/07/13 03:43:43;;;;;;;4.43;3.70;;;20.30;99.90;;;;;;4942100;28;20607;-85
2021/07/13 03:46:10;;;;;;;4.53;4.13;;;20.30;99.90;;;;;;4980398;28;20560;-84
2021/07/13 03:48:37;;;;;;;4.10;3.80;;;20.20;99.90;;;;;;4975268;28;20559;-84
2021/07/13 03:51:02;;;;;;;4.57;4.17;;;20.20;99.90;;;;;;4971409;28;20623;-85
2021/07/13 03:53:28;;;;;;;3.73;3.43;;;20.30;99.90;;;;;;4974922;28;20658;-84
2021/07/13 03:55:54;;;;;;;4.13;3.73;;;20.30;99.90;;;;;;4975484;28;21158;-83
2021/07/13 03:58:20;;;;;;;4.50;4.10;;;20.30;99.90;;;;;;4971718;28;20232;-84
2021/07/13 04:00:46;;;;;;;4.47;4.07;;;20.30;99.90;;;;;;4938627;28;20649;-85
2021/07/13 04:03:14;;;;;;;4.60;4.20;;;20.30;99.90;;;;;;4955456;29;20659;-84
2021/07/13 04:05:41;;;;;;;5.93;5.20;;;20.30;99.90;;;;;;4946542;29;20667;-85
2021/07/13 04:08:06;;;;;;;5.40;4.30;;;20.30;99.90;;;;;;4937903;29;20172;-85
2021/07/13 04:10:32;;;;;;;5.53;4.13;;;20.30;99.90;;;;;;4953030;29;20612;-84
2021/07/13 04:12:58;;;;;;;4.83;4.43;;;20.30;99.90;;;;;;4953624;29;20199;-84
2021/07/13 04:15:24;;;;;;;7.47;5.13;;;20.40;99.90;;;;;;4952478;29;20211;-84
2021/07/13 04:17:50;;;;;;;6.13;5.57;;;20.40;99.90;;;;;;4953633;29;20173;-85
2021/07/13 04:20:15;;;;;;;6.10;5.50;;;20.40;99.90;;;;;;4953957;29;20164;-84
2021/07/13 04:22:43;;;;;;;6.23;5.73;;;20.40;99.90;;;;;;4957467;29;20728;-84
2021/07/13 04:25:11;;;;;;;6.20;5.67;;;20.40;99.90;;;;;;4954856;29;20172;-85
2021/07/13 04:27:37;;;;;;;6.80;6.10;;;20.40;99.90;;;;;;4954851;29;20663;-84
2021/07/13 04:30:05;;;;;;;7.33;6.63;;;20.40;99.90;;;;;;4954684;29;20667;-84
2021/07/13 04:32:32;;;;;;;6.17;5.67;;;20.40;99.90;;;;;;4937834;29;21144;-85
2021/07/13 04:34:58;;;;;;;6.80;6.20;;;20.50;99.90;;;;;;4954899;29;21155;-85
2021/07/13 04:37:24;;;;;;;12.23;6.83;;;20.50;99.90;;;;;;4921944;29;20572;-85
2021/07/13 04:39:51;;;;;;;6.07;5.57;;;20.50;99.90;;;;;;4921716;29;20177;-86
2021/07/13 04:42:17;;;;;;;6.40;5.90;;;20.50;99.90;;;;;;4937529;29;20636;-85
2021/07/13 04:44:42;;;;;;;6.70;6.10;;;20.50;99.90;;;;;;4954706;29;20579;-85
2021/07/13 04:47:08;;;;;;;6.87;6.20;;;20.40;99.90;;;;;;4937733;29;20160;-85
2021/07/13 04:49:34;;;;;;;8.23;7.33;;;20.50;99.90;;;;;;4955298;29;20248;-85
2021/07/13 04:52:01;;;;;;;7.00;6.07;;;20.50;99.90;;;;;;4954689;29;21125;-81
2021/07/13 04:54:31;;;;;;;6.90;5.50;;;20.40;99.90;;;;;;4953102;29;20172;-82
2021/07/13 04:57:00;;;;;;;6.80;6.30;;;20.50;99.90;;;;;;4953931;28;21238;-82
2021/07/13 04:59:26;;;;;;;6.87;6.27;;;20.40;99.90;;;;;;4941858;29;20588;-81
2021/07/13 05:01:52;;;;;;;8.10;7.30;;;20.50;99.90;;;;;;4954170;29;20632;-82
2021/07/13 05:04:18;;;;;;;7.10;6.50;;;20.50;99.90;;;;;;4937097;29;20580;-82
2021/07/13 05:06:44;;;;;;;6.30;5.80;;;20.50;99.90;;;;;;4953922;29;20164;-81
2021/07/13 05:09:09;;;;;;;7.50;6.80;;;20.50;99.90;;;;;;4953918;29;20532;-81
2021/07/13 05:11:35;;;;;;;7.30;6.60;;;20.50;99.90;;;;;;4954007;29;20751;-81
2021/07/13 05:14:02;;;;;;;7.57;6.97;;;20.50;99.90;;;;;;4962030;29;20209;-81
2021/07/13 05:16:29;;;;;;;8.37;7.63;;;20.50;99.90;;;;;;4953013;29;20184;-81
2021/07/13 05:18:56;;;;;;;8.87;7.37;;;20.40;99.90;;;;;;4954257;29;20592;-81
2021/07/13 05:21:22;;;;;;;8.03;7.07;;;20.40;99.90;;;;;;4953754;29;20611;-82
2021/07/13 05:23:47;;;;;;;9.23;8.33;;;20.40;99.90;;;;;;4954007;29;20667;-81
2021/07/13 05:26:13;;;;;;;8.23;7.43;;;20.40;99.90;;;;;;4953711;29;20670;-82
2021/07/13 05:28:40;;;;;;;7.67;7.00;;;20.40;99.90;;;;;;4936834;29;20220;-81
2021/07/13 05:31:05;;;;;;;8.63;7.83;;;20.40;99.90;;;;;;4952220;29;20204;-81
2021/07/13 05:33:31;;;;;;;6.30;5.80;;;20.50;99.90;;;;;;4936930;29;20631;-81
2021/07/13 05:35:57;;;;;;;8.53;7.73;;;20.40;99.90;;;;;;4958857;29;20582;-81
2021/07/13 05:38:25;;;;;;;8.63;7.83;;;20.40;99.90;;;;;;4954212;29;20251;-81
2021/07/13 05:40:51;;;;;;;7.97;7.20;;;20.40;99.90;;;;;;4952311;29;20176;-81
2021/07/13 05:43:17;;;;;;;9.63;8.60;;;20.40;99.90;;;;;;4936725;29;20576;-81
2021/07/13 05:45:45;;;;;;;9.43;8.47;;;20.50;99.90;;;;;;4952513;29;20572;-80
2021/07/13 05:48:13;;;;;;;11.93;8.57;;;20.50;99.90;;;;;;4953681;29;20599;-82
2021/07/13 05:50:39;;;;;;;9.40;8.53;;;20.50;99.90;;;;;;4944429;29;20595;-81
2021/07/13 05:53:05;;;;;;;11.53;9.20;;;20.50;99.90;;;;;;4936739;29;20247;-81
2021/07/13 05:55:30;;;;;;;11.33;9.30;;;20.50;99.90;;;;;;4936767;29;20633;-80
2021/07/13 05:57:56;;;;;;;9.20;8.40;;;20.50;99.90;;;;;;4966439;28;20175;-79
2021/07/13 06:00:23;;;;;;;8.97;8.07;;;20.50;99.90;;;;;;4991795;28;20548;-82
2021/07/13 06:02:48;;;;;;;10.73;9.67;;;20.40;99.90;;;;;;4988392;28;20585;-83
2021/07/13 06:05:15;;;;;;;14.13;10.20;;;20.40;99.90;;;;;;4954529;28;20650;-84
2021/07/13 06:07:48;;;;;;;9.60;8.70;;;20.40;99.90;;;;;;4972305;28;20238;-83
2021/07/13 06:10:17;;;;;;;9.30;8.50;;;20.40;99.90;;;;;;4994584;28;20579;-83
2021/07/13 06:12:43;;;;;;;10.03;9.00;;;20.40;99.90;;;;;;4991454;28;20632;-82
2021/07/13 06:15:09;;;;;;;10.77;9.77;;;20.40;99.90;;;;;;4964435;29;20581;-83
2021/07/13 06:17:35;;;;;;;11.03;9.93;;;20.40;99.90;;;;;;4962158;29;20231;-84
2021/07/13 06:20:03;;;;;;;8.90;8.00;;;20.40;99.90;;;;;;4945217;29;20583;-83
2021/07/13 06:22:28;;;;;;;9.83;8.93;;;20.40;99.90;;;;;;4962906;29;20263;-83
2021/07/13 06:24:54;;;;;;;8.40;7.73;;;20.40;99.90;;;;;;4961943;29;20620;-82
2021/07/13 06:27:20;;;;;;;9.50;8.60;;;20.40;99.90;;;;;;4959468;29;20239;-83
2021/07/13 06:29:48;;;;;;;9.83;8.83;;;20.40;99.90;;;;;;4959592;29;20239;-82
2021/07/13 06:32:14;;;;;;;9.63;8.63;;;20.40;99.90;;;;;;4957175;29;20208;-84
2021/07/13 06:34:39;;;;;;;8.77;7.87;;;20.40;99.90;;;;;;4958766;29;20568;-84
2021/07/13 06:37:05;;;;;;;10.20;9.00;;;20.50;99.90;;;;;;4958004;28;20637;-84
2021/07/13 06:39:31;;;;;;;12.30;10.10;;;20.40;99.90;;;;;;4958000;29;20172;-84
2021/07/13 06:41:57;;;;;;;9.33;8.47;;;20.40;99.90;;;;;;4941312;29;20204;-84
2021/07/13 06:44:23;;;;;;;9.97;9.00;;;20.40;99.90;;;;;;4941214;29;21231;-84
2021/07/13 06:46:56;;;;;;;9.77;8.80;;;20.30;99.90;;;;;;4978729;29;20183;-83
2021/07/13 06:49:21;;;;;;;10.70;9.53;;;20.30;99.90;;;;;;4978261;29;20176;-83
2021/07/13 06:51:47;;;;;;;8.60;7.80;;;20.30;99.90;;;;;;4979437;29;20705;-82
2021/07/13 06:54:13;;;;;;;12.57;10.37;;;20.20;99.90;;;;;;4977351;28;20588;-82
2021/07/13 06:56:39;;;;;;;11.40;10.37;;;20.30;99.90;;;;;;4961858;29;20192;-82
2021/07/13 06:59:06;;;;;;;10.33;8.90;;;20.30;99.90;;;;;;4972086;29;20217;-81
2021/07/13 07:01:31;;;;;;;13.80;8.90;;;20.20;99.90;;;;;;4956616;29;20603;-81
2021/07/13 07:03:57;;;;;;;9.03;8.10;;;20.20;99.90;;;;;;4961424;29;20586;-81
2021/07/13 07:06:23;;;;;;;8.73;8.03;;;20.30;99.90;;;;;;4964473;29;20176;-82
2021/07/13 07:08:49;;;;;;;9.37;8.07;;;20.20;99.90;;;;;;4956188;29;20628;-82
2021/07/13 07:11:14;;;;;;;10.07;9.20;;;20.30;99.90;;;;;;4956196;29;20218;-82
2021/07/13 07:13:40;;;;;;;10.90;8.93;;;20.30;99.90;;;;;;4957662;29;20255;-82
2021/07/13 07:16:06;;;;;;;9.87;9.03;;;20.30;99.90;;;;;;4956850;29;20207;-81
2021/07/13 07:18:32;;;;;;;9.53;8.63;;;20.30;99.90;;;;;;4957831;29;20176;-82
2021/07/13 07:20:58;;;;;;;9.70;8.80;;;20.30;99.90;;;;;;4956557;28;21117;-82
2021/07/13 07:23:24;;;;;;;8.10;7.40;;;20.30;99.90;;;;;;4956723;29;20580;-81
2021/07/13 07:25:49;;;;;;;10.40;9.40;;;20.30;99.90;;;;;;4962620;29;20236;-81
2021/07/13 07:28:15;;;;;;;9.83;9.03;;;20.40;99.90;;;;;;4924914;29;20184;-81
2021/07/13 07:30:41;;;;;;;9.60;8.60;;;20.40;99.90;;;;;;4959189;29;20648;-80
2021/07/13 07:33:07;;;;;;;8.87;8.00;;;20.40;99.90;;;;;;4969493;29;20627;-81
2021/07/13 07:35:33;;;;;;;8.77;7.97;;;20.40;99.90;;;;;;4971220;29;20172;-80
2021/07/13 07:37:59;;;;;;;12.43;9.80;;;20.40;99.90;;;;;;4963864;29;20176;-80
2021/07/13 07:40:27;;;;;;;8.73;7.97;;;20.40;99.90;;;;;;4956326;29;20619;-82
2021/07/13 07:42:54;;;;;;;9.73;8.80;;;20.40;99.90;;;;;;4955839;29;20650;-82
2021/07/13 07:45:22;;;;;;;8.37;7.60;;;20.40;99.90;;;;;;4956313;29;20575;-82
2021/07/13 07:47:49;;;;;;;9.93;9.03;;;20.40;99.90;;;;;;4955588;29;20623;-82
2021/07/13 07:50:16;;;;;;;9.10;8.30;;;20.40;99.90;;;;;;4955159;29;20595;-81
2021/07/13 07:52:42;;;;;;;8.13;7.20;;;20.40;99.90;;;;;;4955016;29;20687;-80
2021/07/13 07:55:10;;;;;;;8.03;7.30;;;20.40;99.90;;;;;;4954970;29;20568;-80
2021/07/13 07:57:37;;;;;;;9.10;8.30;;;20.40;99.90;;;;;;4955054;29;20571;-79
2021/07/13 08:00:11;;;;;;;8.30;7.60;;;20.50;99.90;;;;;;4953532;29;20679;-80
2021/07/13 08:02:40;;;;;;;8.00;7.30;;;20.50;99.90;;;;;;4957932;29;20630;-79
2021/07/13 08:05:07;;;;;;;7.30;6.60;;;20.50;99.90;;;;;;4954108;29;20580;-79
2021/07/13 08:07:37;;;;;;;7.77;7.07;;;20.50;99.90;;;;;;4955128;29;20591;-80
2021/07/13 08:10:07;;;;;;;6.90;6.30;;;20.50;99.90;;;;;;4953483;29;20586;-80
2021/07/13 08:12:33;;;;;;;8.10;7.40;;;20.50;99.90;;;;;;4954972;29;20632;-80
2021/07/13 08:14:59;;;;;;;6.40;5.90;;;20.60;99.90;;;;;;4954936;29;20568;-81
2021/07/13 08:17:25;;;;;;;6.80;6.20;;;20.60;99.90;;;;;;4956832;29;20596;-80
2021/07/13 08:19:51;;;;;;;7.37;6.73;;;20.60;99.90;;;;;;4957513;29;20572;-80
2021/07/13 08:22:16;;;;;;;6.87;6.10;;;20.60;99.90;;;;;;4937560;29;20666;-81
2021/07/13 08:24:42;;;;;;;6.50;5.90;;;20.70;99.90;;;;;;4954832;29;20200;-81
2021/07/13 08:27:09;;;;;;;6.97;6.37;;;20.70;99.90;;;;;;4937335;29;20572;-81
2021/07/13 08:29:36;;;;;;;6.83;6.23;;;20.80;99.90;;;;;;4953734;29;20175;-81
2021/07/13 08:32:02;;;;;;;7.77;7.17;;;20.80;99.90;;;;;;4953153;28;21307;-82
2021/07/13 08:34:30;;;;;;;8.40;7.53;;;20.90;99.90;;;;;;4947731;28;20587;-81
2021/07/13 08:36:59;;;;;;;6.10;5.57;;;20.90;99.90;;;;;;4973747;28;20579;-80
2021/07/13 08:39:25;;;;;;;8.10;7.30;;;21.00;99.90;;;;;;4944743;28;20591;-80
2021/07/13 08:41:52;;;;;;;7.50;6.80;;;21.10;99.90;;;;;;4974196;28;20638;-82
2021/07/13 08:44:18;;;;;;;7.33;6.60;;;21.10;99.90;;;;;;4940607;28;20570;-81
2021/07/13 08:46:45;;;;;;;8.60;7.90;;;21.30;99.90;;;;;;4973721;28;20563;-81
2021/07/13 08:49:13;;;;;;;9.00;8.20;;;21.30;99.90;;;;;;4968022;28;20176;-80
2021/07/13 08:51:41;;;;;;;7.23;6.50;;;21.40;99.90;;;;;;4964818;28;20638;-79
2021/07/13 08:54:08;;;;;;;8.40;7.60;;;21.50;99.90;;;;;;4942674;29;20599;-79
2021/07/13 08:56:36;;;;;;;9.00;8.20;;;21.60;99.90;;;;;;4954180;29;20572;-79
2021/07/13 08:59:03;;;;;;;8.33;7.73;;;21.60;99.90;;;;;;4971673;28;21032;-79
2021/07/13 09:01:29;;;;;;;9.73;8.77;;;21.70;99.90;;;;;;4973467;28;20708;-79
2021/07/13 09:03:57;;;;;;;8.50;7.07;;;21.70;99.90;;;;;;4955777;28;20949;-80
2021/07/13 09:06:24;;;;;;;9.60;8.60;;;21.80;99.90;;;;;;4964199;28;20608;-80
2021/07/13 09:08:50;;;;;;;8.33;7.60;;;21.80;99.90;;;;;;4953509;29;20576;-79
2021/07/13 09:11:21;;;;;;;9.07;8.20;;;21.80;99.90;;;;;;4953592;29;20666;-79
2021/07/13 09:13:58;;;;;;;9.37;8.47;;;21.90;99.90;;;;;;4936629;29;20576;-77
2021/07/13 09:16:30;;;;;;;9.63;8.73;;;22.00;99.90;;;;;;4939882;29;20635;-77
2021/07/13 09:18:58;;;;;;;8.13;7.33;;;22.20;99.90;;;;;;4953809;29;20584;-78
2021/07/13 09:21:42;;;;;;;9.33;8.43;;;22.40;99.90;;;;;;4953393;29;20620;-78
2021/07/13 09:24:20;;;;;;;8.70;7.90;;;22.50;99.90;;;;;;4936567;29;20698;-78
2021/07/13 09:26:49;;;;;;;9.47;8.40;;;22.70;99.90;;;;;;4953381;29;20635;-78
2021/07/13 09:29:30;;;;;;;7.60;6.83;;;22.80;99.90;;;;;;4953446;29;20576;-79
2021/07/13 09:32:15;;;;;;;8.50;7.80;;;22.90;99.90;;;;;;4936258;29;20731;-78
2021/07/13 09:34:47;;;;;;;7.97;7.37;;;23.00;99.90;;;;;;4936669;29;20579;-78
2021/07/13 09:37:30;;;;;;;9.47;8.67;;;23.10;99.90;;;;;;4953489;29;20663;-77
2021/07/13 09:40:09;;;;;;;11.23;10.03;;;23.10;99.90;;;;;;4953178;29;20580;-78
2021/07/13 09:42:49;;;;;;;10.17;9.07;;;23.20;99.90;;;;;;4952749;29;21198;-78
2021/07/13 09:45:15;;;;;;;8.87;8.07;;;23.30;99.90;;;;;;4953203;29;21148;-77
2021/07/13 09:47:42;;;;;;;8.53;7.70;;;23.40;99.90;;;;;;4920088;29;20579;-78
2021/07/13 09:50:09;;;;;;;7.00;6.50;;;23.50;99.90;;;;;;4953258;29;20589;-78
2021/07/13 09:52:35;;;;;;;9.07;8.30;;;23.60;99.90;;;;;;4954291;29;20635;-78
2021/07/13 09:55:16;;;;;;;7.77;7.07;;;23.80;99.90;;;;;;4957026;29;20574;-78
2021/07/13 09:57:43;;;;;;;9.23;8.40;;;24.10;99.90;;;;;;4962996;28;20541;-78
2021/07/13 10:00:09;;;;;;;8.73;7.87;;;24.40;99.90;;;;;;4972067;28;21193;-77
2021/07/13 10:02:37;;;;;;;10.07;9.23;;;24.60;99.90;;;;;;4954963;28;20714;-78
2021/07/13 10:05:06;;;;;;;9.77;8.87;;;24.90;99.90;;;;;;4972473;28;20941;-78
2021/07/13 10:07:33;;;;;;;9.23;8.43;;;25.20;99.90;;;;;;4972047;28;20943;-79
2021/07/13 10:10:00;;;;;;;8.57;7.93;;;25.50;99.90;;;;;;4972426;28;20575;-78
2021/07/13 10:12:27;;;;;;;8.07;7.47;;;26.00;99.90;;;;;;4971823;28;20689;-78
2021/07/13 10:15:02;;;;;;;9.67;8.87;;;26.30;99.90;;;;;;4972056;28;20645;-78
2021/07/13 10:17:30;;;;;;;10.20;9.30;;;26.50;99.90;;;;;;4972661;28;20574;-78
2021/07/13 10:20:04;;;;;;;8.63;7.93;;;26.80;99.90;;;;;;4931126;28;20624;-79
2021/07/13 10:22:35;;;;;;;7.93;7.33;;;26.90;99.90;;;;;;4957373;28;20648;-79
2021/07/13 10:25:02;;;;;;;9.67;8.70;;;26.90;99.90;;;;;;4872466;29;20953;-76
2021/07/13 10:27:33;;;;;;;9.23;8.33;;;26.80;99.90;;;;;;4850737;29;20615;-78
2021/07/13 10:30:07;;;;;;;9.57;8.77;;;26.70;99.90;;;;;;4784046;29;20607;-77
2021/07/13 10:32:39;;;;;;;9.33;8.60;;;26.60;99.90;;;;;;4691934;30;21233;-77
2021/07/13 10:37:30;;;;;;;9.97;9.17;;;26.60;99.90;;;;;;5148711;27;20714;-75
2021/07/13 10:40:00;;;;;;;11.23;10.27;;;26.40;99.90;;;;;;5013517;28;1260516;-76
2021/07/13 10:42:46;;;;;;;10.60;9.27;;;26.30;99.90;;;;;;5054393;28;20258;-76
2021/07/13 10:45:24;;;;;;;9.37;8.63;;;26.20;99.90;;;;;;5067993;28;20601;-76
2021/07/13 10:47:59;;;;;;;7.40;6.90;;;26.20;99.90;;;;;;5033924;28;20583;-77
2021/07/13 10:50:27;;;;;;;8.07;7.37;;;26.10;99.90;;;;;;5068016;28;20629;-76
2021/07/13 10:52:57;;;;;;;8.80;8.10;;;26.10;99.90;;;;;;5050244;28;20590;-77
2021/07/13 10:55:35;;;;;;;7.83;7.13;;;26.00;99.90;;;;;;5055732;28;20212;-76
2021/07/13 10:58:16;;;;;;;8.30;7.50;;;26.00;99.90;;;;;;5049929;28;20582;-77
2021/07/13 11:00:50;;;;;;;6.50;6.00;;;26.00;99.90;;;;;;5030303;28;20916;-77
2021/07/13 11:03:35;;;;;;;7.87;7.17;;;26.00;99.90;;;;;;5033489;28;21114;-77
2021/07/13 11:06:05;;;;;;;6.03;5.63;;;26.00;99.90;;;;;;5050792;28;20580;-76
2021/07/13 11:11:15;;;;;;;6.10;5.70;;;26.10;99.90;;;;;;5067046;28;20701;-77
2021/07/13 11:14:10;;;;;;;6.07;5.67;;;26.10;99.90;;;;;;5062492;28;21141;-77
2021/07/13 11:16:41;;;;;;;5.30;4.90;;;26.10;99.90;;;;;;5045702;28;20815;-77
2021/07/13 11:19:12;;;;;;;5.87;5.37;;;26.20;99.90;;;;;;5066583;28;20632;-78
2021/07/13 11:21:44;;;;;;;5.43;5.03;;;26.30;99.90;;;;;;5067604;28;21001;-76
2021/07/13 11:24:16;;;;;;;5.27;4.63;;;26.30;99.90;;;;;;5033375;28;20911;-76
2021/07/13 11:26:47;;;;;;;5.50;4.90;;;26.30;99.90;;;;;;5066979;28;20593;-78
2021/07/13 11:29:20;;;;;;;2.83;2.63;;;26.20;99.90;;;;;;5049517;28;20611;-77
2021/07/13 11:31:52;;;;;;;3.37;3.17;;;26.20;99.90;;;;;;5067531;28;20997;-76
2021/07/13 11:34:21;;;;;;;3.67;2.60;;;26.20;99.90;;;;;;5067664;28;20570;-75
2021/07/13 11:36:52;;;;;;;3.13;2.27;;;26.20;99.90;;;;;;5067439;28;21011;-76
2021/07/13 11:39:25;;;;;;;3.20;2.90;;;26.20;99.90;;;;;;5067258;28;20636;-78
2021/07/13 11:41:56;;;;;;;3.50;3.20;;;26.10;99.90;;;;;;5049173;28;20672;-77
2021/07/13 11:44:23;;;;;;;3.90;3.60;;;26.20;99.90;;;;;;5071585;28;20570;-76
2021/07/13 11:46:51;;;;;;;3.97;3.67;;;26.10;99.90;;;;;;5065119;28;20577;-77
2021/07/13 11:49:23;;;;;;;5.10;4.60;;;26.10;99.90;;;;;;5035058;28;20607;-77
2021/07/13 11:51:57;;;;;;;5.43;5.03;;;26.10;99.90;;;;;;5053821;28;20587;-76
2021/07/13 11:54:38;;;;;;;4.87;4.47;;;26.10;99.90;;;;;;5036086;28;20661;-76
2021/07/13 11:57:18;;;;;;;6.03;5.53;;;26.10;99.90;;;;;;5053440;28;20618;-77
2021/07/13 11:59:48;;;;;;;5.33;4.93;;;26.10;99.90;;;;;;5036609;28;20570;-76
2021/07/13 12:02:14;;;;;;;6.37;5.83;;;26.10;99.90;;;;;;5035907;28;20583;-77
2021/07/13 12:04:48;;;;;;;6.47;5.87;;;26.00;99.90;;;;;;5000098;28;20572;-76
2021/07/13 12:07:14;;;;;;;6.33;5.43;;;26.00;99.90;;;;;;5033661;28;20572;-77
2021/07/13 12:09:40;;;;;;;6.40;5.90;;;26.00;99.90;;;;;;5015998;28;21190;-77
2021/07/13 12:12:16;;;;;;;7.13;6.53;;;26.00;99.90;;;;;;5033613;28;20619;-77
2021/07/13 12:14:46;;;;;;;6.67;6.17;;;25.90;99.90;;;;;;5016010;28;20634;-77
2021/07/13 12:17:14;;;;;;;6.87;6.37;;;26.00;99.90;;;;;;5038537;28;20622;-78
2021/07/13 12:19:41;;;;;;;6.57;5.97;;;25.90;99.90;;;;;;5053641;28;20568;-78
2021/07/13 12:22:12;;;;;;;5.73;5.23;;;25.90;99.90;;;;;;5036178;28;20600;-77
2021/07/13 12:24:39;;;;;;;7.10;6.40;;;26.00;99.90;;;;;;5020040;28;20893;-78
2021/07/13 12:27:11;;;;;;;6.13;5.63;;;26.00;99.90;;;;;;5033351;28;21256;-78
2021/07/13 12:29:42;;;;;;;6.10;5.60;;;25.90;99.90;;;;;;5034252;28;20603;-78
2021/07/13 12:32:29;;;;;;;6.50;5.97;;;25.80;99.90;;;;;;5033212;28;20634;-76
2021/07/13 12:34:56;;;;;;;5.60;5.10;;;25.70;99.90;;;;;;5033571;28;20572;-76
2021/07/13 12:37:27;;;;;;;8.13;5.47;;;25.70;99.90;;;;;;4999074;28;20690;-77
2021/07/13 12:40:06;;;;;;;6.67;6.07;;;25.50;99.90;;;;;;4996090;28;20585;-77
2021/07/13 12:42:33;;;;;;;6.10;5.60;;;25.50;99.90;;;;;;4995587;28;20625;-77
2021/07/13 12:45:13;;;;;;;7.30;6.70;;;25.40;99.90;;;;;;5031623;28;20576;-78
2021/07/13 12:47:46;;;;;;;7.57;6.97;;;25.30;99.90;;;;;;5015699;28;20570;-77
2021/07/13 12:50:17;;;;;;;9.47;8.53;;;25.20;99.90;;;;;;5033316;28;20624;-77
2021/07/13 12:52:47;;;;;;;8.70;8.00;;;25.20;99.90;;;;;;5016509;28;20967;-77
2021/07/13 12:55:30;;;;;;;10.07;9.10;;;25.20;99.90;;;;;;5038213;28;21116;-76
2021/07/13 12:58:14;;;;;;;9.57;8.77;;;25.20;99.90;;;;;;5017456;28;20565;-77
2021/07/13 13:01:02;;;;;;;11.23;10.17;;;25.20;99.90;;;;;;5011946;28;20588;-77